sensor_id;sensor_type;location;lat;lon;timestamp;temperature;humidity
81161;DHT22;70637;48.514;14.500;2024-01-10T00:01:18;28.50;30.80
81161;DHT22;70637;48.514;14.500;2024-01-10T00:03:43;28.50;30.70
81161;DHT22;70637;48.514;14.500;2024-01-10T00:06:10;28.50;30.60
81161;DHT22;70637;48.514;14.500;2024-01-10T00:08:36;28.50;30.50
81161;DHT22;70637;48.514;14.500;2024-01-10T00:11:02;28.50;30.60
81161;DHT22;70637;48.514;14.500;2024-01-10T00:13:30;28.50;30.40
81161;DHT22;70637;48.514;14.500;2024-01-10T00:15:56;28.50;30.40
81161;DHT22;70637;48.514;14.500;2024-01-10T00:18:24;28.50;30.50
81161;DHT22;70637;48.514;14.500;2024-01-10T00:20:53;28.50;30.50
81161;DHT22;70637;48.514;14.500;2024-01-10T00:23:22;28.40;30.50
81161;DHT22;70637;48.514;14.500;2024-01-10T00:25:48;28.40;30.40
81161;DHT22;70637;48.514;14.500;2024-01-10T00:28:15;28.40;30.40
81161;DHT22;70637;48.514;14.500;2024-01-10T00:30:44;28.30;30.40
81161;DHT22;70637;48.514;14.500;2024-01-10T00:33:10;28.30;30.50
81161;DHT22;70637;48.514;14.500;2024-01-10T00:35:36;28.30;30.50
81161;DHT22;70637;48.514;14.500;2024-01-10T00:38:02;28.30;30.50
81161;DHT22;70637;48.514;14.500;2024-01-10T00:40:28;28.20;30.50
81161;DHT22;70637;48.514;14.500;2024-01-10T00:42:54;28.20;30.60
81161;DHT22;70637;48.514;14.500;2024-01-10T00:45:20;28.20;30.60
81161;DHT22;70637;48.514;14.500;2024-01-10T00:47:48;28.20;30.70
81161;DHT22;70637;48.514;14.500;2024-01-10T00:50:13;28.10;30.60
81161;DHT22;70637;48.514;14.500;2024-01-10T00:52:39;28.10;30.70
81161;DHT22;70637;48.514;14.500;2024-01-10T00:55:05;28.10;30.70
81161;DHT22;70637;48.514;14.500;2024-01-10T00:57:30;28.10;30.70
81161;DHT22;70637;48.514;14.500;2024-01-10T00:59:56;28.00;30.70
81161;DHT22;70637;48.514;14.500;2024-01-10T01:02:22;28.00;30.80
81161;DHT22;70637;48.514;14.500;2024-01-10T01:04:47;28.00;30.90
81161;DHT22;70637;48.514;14.500;2024-01-10T01:07:13;28.00;30.90
81161;DHT22;70637;48.514;14.500;2024-01-10T01:09:39;27.90;30.80
81161;DHT22;70637;48.514;14.500;2024-01-10T01:12:05;27.90;30.90
81161;DHT22;70637;48.514;14.500;2024-01-10T01:14:30;27.90;30.90
81161;DHT22;70637;48.514;14.500;2024-01-10T01:16:56;27.90;31.00
81161;DHT22;70637;48.514;14.500;2024-01-10T01:19:22;27.90;31.00
81161;DHT22;70637;48.514;14.500;2024-01-10T01:21:47;27.80;30.90
81161;DHT22;70637;48.514;14.500;2024-01-10T01:24:13;27.80;31.00
81161;DHT22;70637;48.514;14.500;2024-01-10T01:26:39;27.80;31.10
81161;DHT22;70637;48.514;14.500;2024-01-10T01:29:04;27.80;31.10
81161;DHT22;70637;48.514;14.500;2024-01-10T01:31:30;27.80;31.10
81161;DHT22;70637;48.514;14.500;2024-01-10T01:33:56;27.80;31.20
81161;DHT22;70637;48.514;14.500;2024-01-10T01:36:23;27.80;31.20
81161;DHT22;70637;48.514;14.500;2024-01-10T01:38:48;27.70;31.20
81161;DHT22;70637;48.514;14.500;2024-01-10T01:41:14;27.70;31.20
81161;DHT22;70637;48.514;14.500;2024-01-10T01:43:40;27.70;31.30
81161;DHT22;70637;48.514;14.500;2024-01-10T01:46:08;27.70;31.20
81161;DHT22;70637;48.514;14.500;2024-01-10T01:48:34;27.60;31.20
81161;DHT22;70637;48.514;14.500;2024-01-10T01:51:02;27.70;31.30
81161;DHT22;70637;48.514;14.500;2024-01-10T01:53:30;27.60;31.30
81161;DHT22;70637;48.514;14.500;2024-01-10T01:55:56;27.60;31.30
81161;DHT22;70637;48.514;14.500;2024-01-10T01:58:23;27.60;31.30
81161;DHT22;70637;48.514;14.500;2024-01-10T02:00:49;27.60;31.30
81161;DHT22;70637;48.514;14.500;2024-01-10T02:03:15;27.60;31.30
81161;DHT22;70637;48.514;14.500;2024-01-10T02:05:41;27.50;31.20
81161;DHT22;70637;48.514;14.500;2024-01-10T02:08:07;27.60;31.30
81161;DHT22;70637;48.514;14.500;2024-01-10T02:10:33;27.50;31.40
81161;DHT22;70637;48.514;14.500;2024-01-10T02:12:59;27.50;31.30
81161;DHT22;70637;48.514;14.500;2024-01-10T02:15:25;27.50;31.40
81161;DHT22;70637;48.514;14.500;2024-01-10T02:17:51;27.50;31.40
81161;DHT22;70637;48.514;14.500;2024-01-10T02:20:17;27.50;31.40
81161;DHT22;70637;48.514;14.500;2024-01-10T02:22:43;27.50;31.40
81161;DHT22;70637;48.514;14.500;2024-01-10T02:25:09;27.50;31.50
81161;DHT22;70637;48.514;14.500;2024-01-10T02:27:36;27.50;31.50
81161;DHT22;70637;48.514;14.500;2024-01-10T02:30:03;27.40;31.40
81161;DHT22;70637;48.514;14.500;2024-01-10T02:32:30;27.40;31.50
81161;DHT22;70637;48.514;14.500;2024-01-10T02:34:56;27.50;31.50
81161;DHT22;70637;48.514;14.500;2024-01-10T02:37:21;27.40;31.40
81161;DHT22;70637;48.514;14.500;2024-01-10T02:39:47;27.40;31.50
81161;DHT22;70637;48.514;14.500;2024-01-10T02:42:13;27.40;31.50
81161;DHT22;70637;48.514;14.500;2024-01-10T02:44:38;27.40;31.50
81161;DHT22;70637;48.514;14.500;2024-01-10T02:47:05;27.40;31.50
81161;DHT22;70637;48.514;14.500;2024-01-10T02:49:32;27.40;31.50
81161;DHT22;70637;48.514;14.500;2024-01-10T02:51:58;27.40;31.60
81161;DHT22;70637;48.514;14.500;2024-01-10T02:54:23;27.40;31.60
81161;DHT22;70637;48.514;14.500;2024-01-10T02:56:49;27.30;31.50
81161;DHT22;70637;48.514;14.500;2024-01-10T02:59:15;27.40;31.70
81161;DHT22;70637;48.514;14.500;2024-01-10T03:01:40;27.40;31.60
81161;DHT22;70637;48.514;14.500;2024-01-10T03:04:06;27.30;31.60
81161;DHT22;70637;48.514;14.500;2024-01-10T03:06:31;27.30;31.70
81161;DHT22;70637;48.514;14.500;2024-01-10T03:08:57;27.30;31.70
81161;DHT22;70637;48.514;14.500;2024-01-10T03:11:23;27.30;31.70
81161;DHT22;70637;48.514;14.500;2024-01-10T03:14:01;27.30;31.70
81161;DHT22;70637;48.514;14.500;2024-01-10T03:16:27;27.30;31.80
81161;DHT22;70637;48.514;14.500;2024-01-10T03:18:53;27.30;31.70
81161;DHT22;70637;48.514;14.500;2024-01-10T03:21:19;27.30;31.80
81161;DHT22;70637;48.514;14.500;2024-01-10T03:23:54;27.20;31.80
81161;DHT22;70637;48.514;14.500;2024-01-10T03:26:20;27.20;31.70
81161;DHT22;70637;48.514;14.500;2024-01-10T03:28:46;27.20;31.70
81161;DHT22;70637;48.514;14.500;2024-01-10T03:31:11;27.20;31.80
81161;DHT22;70637;48.514;14.500;2024-01-10T03:33:37;27.20;31.80
81161;DHT22;70637;48.514;14.500;2024-01-10T03:36:04;27.20;31.80
81161;DHT22;70637;48.514;14.500;2024-01-10T03:38:30;27.20;31.80
81161;DHT22;70637;48.514;14.500;2024-01-10T03:40:56;27.20;31.80
81161;DHT22;70637;48.514;14.500;2024-01-10T03:43:21;27.20;31.80
81161;DHT22;70637;48.514;14.500;2024-01-10T03:45:47;27.10;31.80
81161;DHT22;70637;48.514;14.500;2024-01-10T03:48:13;27.20;31.90
81161;DHT22;70637;48.514;14.500;2024-01-10T03:50:38;27.20;31.80
81161;DHT22;70637;48.514;14.500;2024-01-10T03:53:04;27.20;31.90
81161;DHT22;70637;48.514;14.500;2024-01-10T03:55:30;27.10;31.80
81161;DHT22;70637;48.514;14.500;2024-01-10T03:57:56;27.10;31.90
81161;DHT22;70637;48.514;14.500;2024-01-10T04:00:22;27.20;31.90
81161;DHT22;70637;48.514;14.500;2024-01-10T04:02:47;27.10;31.90
81161;DHT22;70637;48.514;14.500;2024-01-10T04:05:13;27.10;31.90
81161;DHT22;70637;48.514;14.500;2024-01-10T04:07:42;27.10;32.00
81161;DHT22;70637;48.514;14.500;2024-01-10T04:10:12;27.10;31.90
81161;DHT22;70637;48.514;14.500;2024-01-10T04:12:45;27.10;31.90
81161;DHT22;70637;48.514;14.500;2024-01-10T04:15:12;27.10;32.00
81161;DHT22;70637;48.514;14.500;2024-01-10T04:17:38;27.10;32.00
81161;DHT22;70637;48.514;14.500;2024-01-10T04:20:04;27.10;32.00
81161;DHT22;70637;48.514;14.500;2024-01-10T04:22:30;27.10;32.00
81161;DHT22;70637;48.514;14.500;2024-01-10T04:25:00;27.10;32.00
81161;DHT22;70637;48.514;14.500;2024-01-10T04:27:27;27.10;32.00
81161;DHT22;70637;48.514;14.500;2024-01-10T04:29:53;27.10;32.00
81161;DHT22;70637;48.514;14.500;2024-01-10T04:32:19;27.00;32.00
81161;DHT22;70637;48.514;14.500;2024-01-10T04:34:45;27.00;32.00
81161;DHT22;70637;48.514;14.500;2024-01-10T04:37:10;27.10;32.00
81161;DHT22;70637;48.514;14.500;2024-01-10T04:39:36;27.00;32.00
81161;DHT22;70637;48.514;14.500;2024-01-10T04:42:03;27.00;32.10
81161;DHT22;70637;48.514;14.500;2024-01-10T04:44:30;27.00;32.10
81161;DHT22;70637;48.514;14.500;2024-01-10T04:46:56;27.00;32.00
81161;DHT22;70637;48.514;14.500;2024-01-10T04:49:22;27.00;32.00
81161;DHT22;70637;48.514;14.500;2024-01-10T04:51:49;27.00;32.00
81161;DHT22;70637;48.514;14.500;2024-01-10T04:54:15;27.00;32.00
81161;DHT22;70637;48.514;14.500;2024-01-10T04:56:41;27.00;32.70
81161;DHT22;70637;48.514;14.500;2024-01-10T04:59:06;27.00;32.10
81161;DHT22;70637;48.514;14.500;2024-01-10T05:01:32;27.00;32.00
81161;DHT22;70637;48.514;14.500;2024-01-10T05:03:58;27.00;32.10
81161;DHT22;70637;48.514;14.500;2024-01-10T05:06:24;27.00;32.10
81161;DHT22;70637;48.514;14.500;2024-01-10T05:08:50;27.00;32.10
81161;DHT22;70637;48.514;14.500;2024-01-10T05:11:16;26.90;32.00
81161;DHT22;70637;48.514;14.500;2024-01-10T05:13:45;27.00;32.10
81161;DHT22;70637;48.514;14.500;2024-01-10T05:16:10;26.90;32.10
81161;DHT22;70637;48.514;14.500;2024-01-10T05:18:36;26.90;32.10
81161;DHT22;70637;48.514;14.500;2024-01-10T05:21:02;26.90;32.20
81161;DHT22;70637;48.514;14.500;2024-01-10T05:23:29;26.90;32.30
81161;DHT22;70637;48.514;14.500;2024-01-10T05:25:55;26.90;32.40
81161;DHT22;70637;48.514;14.500;2024-01-10T05:28:21;26.90;32.40
81161;DHT22;70637;48.514;14.500;2024-01-10T05:30:46;26.90;32.40
81161;DHT22;70637;48.514;14.500;2024-01-10T05:33:12;26.90;32.40
81161;DHT22;70637;48.514;14.500;2024-01-10T05:35:41;26.90;32.50
81161;DHT22;70637;48.514;14.500;2024-01-10T05:38:07;27.00;32.50
81161;DHT22;70637;48.514;14.500;2024-01-10T05:40:33;26.90;32.40
81161;DHT22;70637;48.514;14.500;2024-01-10T05:42:59;26.90;32.40
81161;DHT22;70637;48.514;14.500;2024-01-10T05:45:27;26.90;32.40
81161;DHT22;70637;48.514;14.500;2024-01-10T05:47:54;27.00;32.50
81161;DHT22;70637;48.514;14.500;2024-01-10T05:50:20;27.00;32.40
81161;DHT22;70637;48.514;14.500;2024-01-10T05:52:49;27.00;32.50
81161;DHT22;70637;48.514;14.500;2024-01-10T05:55:15;27.00;32.40
81161;DHT22;70637;48.514;14.500;2024-01-10T05:57:40;27.00;33.40
81161;DHT22;70637;48.514;14.500;2024-01-10T06:00:07;27.00;32.40
81161;DHT22;70637;48.514;14.500;2024-01-10T06:02:37;27.00;32.30
81161;DHT22;70637;48.514;14.500;2024-01-10T06:05:06;27.00;32.30
81161;DHT22;70637;48.514;14.500;2024-01-10T06:07:32;27.00;32.30
81161;DHT22;70637;48.514;14.500;2024-01-10T06:09:58;27.00;32.40
81161;DHT22;70637;48.514;14.500;2024-01-10T06:12:23;27.00;32.30
81161;DHT22;70637;48.514;14.500;2024-01-10T06:14:49;27.00;32.30
81161;DHT22;70637;48.514;14.500;2024-01-10T06:17:15;27.00;32.40
81161;DHT22;70637;48.514;14.500;2024-01-10T06:19:41;27.00;32.30
81161;DHT22;70637;48.514;14.500;2024-01-10T06:22:07;27.00;32.30
81161;DHT22;70637;48.514;14.500;2024-01-10T06:24:32;27.00;32.30
81161;DHT22;70637;48.514;14.500;2024-01-10T06:26:58;27.00;32.30
81161;DHT22;70637;48.514;14.500;2024-01-10T06:29:24;27.00;32.30
81161;DHT22;70637;48.514;14.500;2024-01-10T06:31:50;27.00;32.30
81161;DHT22;70637;48.514;14.500;2024-01-10T06:34:16;27.00;32.30
81161;DHT22;70637;48.514;14.500;2024-01-10T06:36:41;27.00;32.30
81161;DHT22;70637;48.514;14.500;2024-01-10T06:39:09;27.00;32.30
81161;DHT22;70637;48.514;14.500;2024-01-10T06:41:38;27.00;32.30
81161;DHT22;70637;48.514;14.500;2024-01-10T06:44:04;27.00;32.30
81161;DHT22;70637;48.514;14.500;2024-01-10T06:46:29;27.00;32.30
81161;DHT22;70637;48.514;14.500;2024-01-10T06:48:56;27.00;32.30
81161;DHT22;70637;48.514;14.500;2024-01-10T06:51:21;27.00;33.30
81161;DHT22;70637;48.514;14.500;2024-01-10T06:53:47;27.00;32.30
81161;DHT22;70637;48.514;14.500;2024-01-10T06:56:13;27.00;32.30
81161;DHT22;70637;48.514;14.500;2024-01-10T06:58:39;27.00;32.40
81161;DHT22;70637;48.514;14.500;2024-01-10T07:01:05;27.00;32.40
81161;DHT22;70637;48.514;14.500;2024-01-10T07:03:31;27.00;32.40
81161;DHT22;70637;48.514;14.500;2024-01-10T07:05:57;27.00;32.40
81161;DHT22;70637;48.514;14.500;2024-01-10T07:08:25;27.00;32.30
81161;DHT22;70637;48.514;14.500;2024-01-10T07:10:52;26.90;32.30
81161;DHT22;70637;48.514;14.500;2024-01-10T07:13:17;27.00;32.40
81161;DHT22;70637;48.514;14.500;2024-01-10T07:15:43;27.00;32.40
81161;DHT22;70637;48.514;14.500;2024-01-10T07:18:08;27.00;32.30
81161;DHT22;70637;48.514;14.500;2024-01-10T07:20:34;27.00;32.30
81161;DHT22;70637;48.514;14.500;2024-01-10T07:23:00;26.90;32.30
81161;DHT22;70637;48.514;14.500;2024-01-10T07:25:25;26.90;32.40
81161;DHT22;70637;48.514;14.500;2024-01-10T07:27:51;26.90;32.30
81161;DHT22;70637;48.514;14.500;2024-01-10T07:30:17;27.00;32.40
81161;DHT22;70637;48.514;14.500;2024-01-10T07:32:43;26.90;32.40
81161;DHT22;70637;48.514;14.500;2024-01-10T07:35:10;27.00;32.50
81161;DHT22;70637;48.514;14.500;2024-01-10T07:37:40;26.90;32.30
81161;DHT22;70637;48.514;14.500;2024-01-10T07:40:07;27.00;32.40
81161;DHT22;70637;48.514;14.500;2024-01-10T07:42:37;26.90;32.30
81161;DHT22;70637;48.514;14.500;2024-01-10T07:45:04;26.90;32.40
81161;DHT22;70637;48.514;14.500;2024-01-10T07:47:33;27.00;32.40
81161;DHT22;70637;48.514;14.500;2024-01-10T07:50:07;27.00;32.40
81161;DHT22;70637;48.514;14.500;2024-01-10T07:52:33;27.00;32.40
81161;DHT22;70637;48.514;14.500;2024-01-10T07:54:59;27.00;32.50
81161;DHT22;70637;48.514;14.500;2024-01-10T07:57:25;27.00;32.50
81161;DHT22;70637;48.514;14.500;2024-01-10T07:59:52;27.00;32.50
81161;DHT22;70637;48.514;14.500;2024-01-10T08:02:18;27.00;32.60
81161;DHT22;70637;48.514;14.500;2024-01-10T08:04:44;27.00;32.60
81161;DHT22;70637;48.514;14.500;2024-01-10T08:07:09;27.00;32.70
81161;DHT22;70637;48.514;14.500;2024-01-10T08:09:35;27.00;32.60
81161;DHT22;70637;48.514;14.500;2024-01-10T08:12:02;27.00;32.70
81161;DHT22;70637;48.514;14.500;2024-01-10T08:14:28;27.00;32.70
81161;DHT22;70637;48.514;14.500;2024-01-10T08:16:54;27.00;32.80
81161;DHT22;70637;48.514;14.500;2024-01-10T08:19:24;27.00;32.70
81161;DHT22;70637;48.514;14.500;2024-01-10T08:21:49;27.00;32.80
81161;DHT22;70637;48.514;14.500;2024-01-10T08:24:15;27.00;32.70
81161;DHT22;70637;48.514;14.500;2024-01-10T08:26:41;27.00;32.80
81161;DHT22;70637;48.514;14.500;2024-01-10T08:29:06;27.00;32.80
81161;DHT22;70637;48.514;14.500;2024-01-10T08:31:33;27.00;32.80
81161;DHT22;70637;48.514;14.500;2024-01-10T08:33:58;27.00;32.80
81161;DHT22;70637;48.514;14.500;2024-01-10T08:36:24;27.00;32.80
81161;DHT22;70637;48.514;14.500;2024-01-10T08:38:50;27.00;32.90
81161;DHT22;70637;48.514;14.500;2024-01-10T08:41:17;27.00;32.80
81161;DHT22;70637;48.514;14.500;2024-01-10T08:43:43;27.00;32.80
81161;DHT22;70637;48.514;14.500;2024-01-10T08:46:09;27.00;32.80
81161;DHT22;70637;48.514;14.500;2024-01-10T08:48:35;27.00;32.80
81161;DHT22;70637;48.514;14.500;2024-01-10T08:51:02;27.00;32.80
81161;DHT22;70637;48.514;14.500;2024-01-10T08:53:27;27.00;32.80
81161;DHT22;70637;48.514;14.500;2024-01-10T08:55:53;27.00;32.80
81161;DHT22;70637;48.514;14.500;2024-01-10T08:58:20;27.00;32.90
81161;DHT22;70637;48.514;14.500;2024-01-10T09:00:46;27.00;32.90
81161;DHT22;70637;48.514;14.500;2024-01-10T09:03:12;27.00;32.90
81161;DHT22;70637;48.514;14.500;2024-01-10T09:05:37;27.00;32.90
81161;DHT22;70637;48.514;14.500;2024-01-10T09:08:03;27.00;32.90
81161;DHT22;70637;48.514;14.500;2024-01-10T09:10:29;27.00;32.90
81161;DHT22;70637;48.514;14.500;2024-01-10T09:12:55;27.10;32.90
81161;DHT22;70637;48.514;14.500;2024-01-10T09:15:21;27.10;32.90
81161;DHT22;70637;48.514;14.500;2024-01-10T09:17:46;27.10;32.90
81161;DHT22;70637;48.514;14.500;2024-01-10T09:20:12;27.10;32.90
81161;DHT22;70637;48.514;14.500;2024-01-10T09:22:39;27.10;32.90
81161;DHT22;70637;48.514;14.500;2024-01-10T09:25:05;27.10;32.90
81161;DHT22;70637;48.514;14.500;2024-01-10T09:27:34;27.10;32.90
81161;DHT22;70637;48.514;14.500;2024-01-10T09:30:01;27.10;32.90
81161;DHT22;70637;48.514;14.500;2024-01-10T09:32:29;27.10;32.90
81161;DHT22;70637;48.514;14.500;2024-01-10T09:34:55;27.10;32.90
81161;DHT22;70637;48.514;14.500;2024-01-10T09:37:21;27.20;33.00
81161;DHT22;70637;48.514;14.500;2024-01-10T09:39:48;27.20;33.00
81161;DHT22;70637;48.514;14.500;2024-01-10T09:42:14;27.20;33.00
81161;DHT22;70637;48.514;14.500;2024-01-10T09:44:41;27.20;33.00
81161;DHT22;70637;48.514;14.500;2024-01-10T09:47:07;27.20;33.00
81161;DHT22;70637;48.514;14.500;2024-01-10T09:49:34;27.10;33.00
81161;DHT22;70637;48.514;14.500;2024-01-10T09:52:04;27.20;33.00
81161;DHT22;70637;48.514;14.500;2024-01-10T09:54:30;27.20;33.10
81161;DHT22;70637;48.514;14.500;2024-01-10T09:56:57;27.20;33.10
81161;DHT22;70637;48.514;14.500;2024-01-10T09:59:24;27.10;33.30
81161;DHT22;70637;48.514;14.500;2024-01-10T10:01:51;27.20;33.10
81161;DHT22;70637;48.514;14.500;2024-01-10T10:04:18;27.20;33.00
81161;DHT22;70637;48.514;14.500;2024-01-10T10:06:45;27.20;33.10
81161;DHT22;70637;48.514;14.500;2024-01-10T10:09:11;27.20;33.10
81161;DHT22;70637;48.514;14.500;2024-01-10T10:11:37;27.10;33.10
81161;DHT22;70637;48.514;14.500;2024-01-10T10:14:17;27.20;33.10
81161;DHT22;70637;48.514;14.500;2024-01-10T10:16:43;27.20;33.20
81161;DHT22;70637;48.514;14.500;2024-01-10T10:19:09;27.30;33.20
81161;DHT22;70637;48.514;14.500;2024-01-10T10:21:35;27.30;33.20
81161;DHT22;70637;48.514;14.500;2024-01-10T10:24:01;27.30;33.20
81161;DHT22;70637;48.514;14.500;2024-01-10T10:26:32;27.40;33.30
81161;DHT22;70637;48.514;14.500;2024-01-10T10:28:58;27.40;33.10
81161;DHT22;70637;48.514;14.500;2024-01-10T10:31:24;27.40;33.00
81161;DHT22;70637;48.514;14.500;2024-01-10T10:33:50;27.50;33.00
81161;DHT22;70637;48.514;14.500;2024-01-10T10:36:17;27.50;32.80
81161;DHT22;70637;48.514;14.500;2024-01-10T10:38:42;27.50;32.70
81161;DHT22;70637;48.514;14.500;2024-01-10T10:41:08;27.60;32.60
81161;DHT22;70637;48.514;14.500;2024-01-10T10:43:38;27.70;32.60
81161;DHT22;70637;48.514;14.500;2024-01-10T10:46:05;27.70;32.50
81161;DHT22;70637;48.514;14.500;2024-01-10T10:48:35;27.70;32.40
81161;DHT22;70637;48.514;14.500;2024-01-10T10:53:28;27.80;32.30
81161;DHT22;70637;48.514;14.500;2024-01-10T10:55:57;27.80;32.20
81161;DHT22;70637;48.514;14.500;2024-01-10T10:58:22;27.80;32.10
81161;DHT22;70637;48.514;14.500;2024-01-10T11:00:49;27.80;32.10
81161;DHT22;70637;48.514;14.500;2024-01-10T11:03:16;27.90;32.10
81161;DHT22;70637;48.514;14.500;2024-01-10T11:05:43;27.90;32.00
81161;DHT22;70637;48.514;14.500;2024-01-10T11:08:12;27.90;32.00
81161;DHT22;70637;48.514;14.500;2024-01-10T11:10:40;27.90;31.90
81161;DHT22;70637;48.514;14.500;2024-01-10T11:13:26;27.90;31.90
81161;DHT22;70637;48.514;14.500;2024-01-10T11:18:54;28.00;31.90
81161;DHT22;70637;48.514;14.500;2024-01-10T11:21:28;28.00;31.80
81161;DHT22;70637;48.514;14.500;2024-01-10T11:24:01;28.00;31.80
81161;DHT22;70637;48.514;14.500;2024-01-10T11:26:28;28.00;31.70
81161;DHT22;70637;48.514;14.500;2024-01-10T11:28:53;28.00;31.70
81161;DHT22;70637;48.514;14.500;2024-01-10T11:31:29;28.00;31.70
81161;DHT22;70637;48.514;14.500;2024-01-10T11:34:02;28.00;31.70
81161;DHT22;70637;48.514;14.500;2024-01-10T11:36:28;28.00;31.80
81161;DHT22;70637;48.514;14.500;2024-01-10T11:38:58;28.00;31.70
81161;DHT22;70637;48.514;14.500;2024-01-10T11:41:35;28.00;31.80
81161;DHT22;70637;48.514;14.500;2024-01-10T11:46:52;28.00;31.80
81161;DHT22;70637;48.514;14.500;2024-01-10T11:49:19;28.00;31.80
81161;DHT22;70637;48.514;14.500;2024-01-10T11:51:45;28.00;31.80
81161;DHT22;70637;48.514;14.500;2024-01-10T11:54:11;28.00;31.90
81161;DHT22;70637;48.514;14.500;2024-01-10T11:56:43;28.00;31.90
81161;DHT22;70637;48.514;14.500;2024-01-10T11:59:12;28.00;31.90
81161;DHT22;70637;48.514;14.500;2024-01-10T12:01:41;28.00;33.10
81161;DHT22;70637;48.514;14.500;2024-01-10T12:04:07;28.00;32.00
81161;DHT22;70637;48.514;14.500;2024-01-10T12:06:36;28.00;32.10
81161;DHT22;70637;48.514;14.500;2024-01-10T12:09:03;28.00;32.10
81161;DHT22;70637;48.514;14.500;2024-01-10T12:11:36;28.00;32.10
81161;DHT22;70637;48.514;14.500;2024-01-10T12:14:03;28.00;32.10
81161;DHT22;70637;48.514;14.500;2024-01-10T12:16:29;28.00;32.10
81161;DHT22;70637;48.514;14.500;2024-01-10T12:18:55;28.00;32.10
81161;DHT22;70637;48.514;14.500;2024-01-10T12:21:20;28.00;32.20
81161;DHT22;70637;48.514;14.500;2024-01-10T12:23:47;27.90;32.20
81161;DHT22;70637;48.514;14.500;2024-01-10T12:26:14;27.90;32.20
81161;DHT22;70637;48.514;14.500;2024-01-10T12:28:40;27.90;32.20
81161;DHT22;70637;48.514;14.500;2024-01-10T12:31:08;27.90;32.30
81161;DHT22;70637;48.514;14.500;2024-01-10T12:33:34;27.90;32.30
81161;DHT22;70637;48.514;14.500;2024-01-10T12:36:08;27.90;32.30
81161;DHT22;70637;48.514;14.500;2024-01-10T12:38:35;27.90;32.40
81161;DHT22;70637;48.514;14.500;2024-01-10T12:41:01;27.90;32.50
81161;DHT22;70637;48.514;14.500;2024-01-10T12:43:27;27.80;32.50
81161;DHT22;70637;48.514;14.500;2024-01-10T12:46:08;27.90;32.60
81161;DHT22;70637;48.514;14.500;2024-01-10T12:48:37;27.90;32.60
81161;DHT22;70637;48.514;14.500;2024-01-10T12:51:05;27.90;32.50
81161;DHT22;70637;48.514;14.500;2024-01-10T12:53:42;27.90;32.60
81161;DHT22;70637;48.514;14.500;2024-01-10T12:56:09;27.90;32.70
81161;DHT22;70637;48.514;14.500;2024-01-10T12:58:37;27.90;32.70
81161;DHT22;70637;48.514;14.500;2024-01-10T13:01:03;27.90;32.80
81161;DHT22;70637;48.514;14.500;2024-01-10T13:03:29;27.90;32.80
81161;DHT22;70637;48.514;14.500;2024-01-10T13:05:55;27.90;32.90
81161;DHT22;70637;48.514;14.500;2024-01-10T13:08:21;27.90;32.90
81161;DHT22;70637;48.514;14.500;2024-01-10T13:10:47;27.90;32.90
81161;DHT22;70637;48.514;14.500;2024-01-10T13:13:14;27.90;32.90
81161;DHT22;70637;48.514;14.500;2024-01-10T13:15:40;27.90;32.90
81161;DHT22;70637;48.514;14.500;2024-01-10T13:18:06;27.90;32.90
81161;DHT22;70637;48.514;14.500;2024-01-10T13:20:38;27.90;32.90
81161;DHT22;70637;48.514;14.500;2024-01-10T13:23:04;27.90;32.90
81161;DHT22;70637;48.514;14.500;2024-01-10T13:25:30;27.90;33.00
81161;DHT22;70637;48.514;14.500;2024-01-10T13:27:58;27.90;33.00
81161;DHT22;70637;48.514;14.500;2024-01-10T13:30:24;27.90;32.90
81161;DHT22;70637;48.514;14.500;2024-01-10T13:32:50;27.80;32.70
81161;DHT22;70637;48.514;14.500;2024-01-10T13:35:16;27.80;32.50
81161;DHT22;70637;48.514;14.500;2024-01-10T13:37:42;27.80;32.20
81161;DHT22;70637;48.514;14.500;2024-01-10T13:40:09;27.80;32.10
81161;DHT22;70637;48.514;14.500;2024-01-10T13:42:39;27.80;32.10
81161;DHT22;70637;48.514;14.500;2024-01-10T13:45:05;27.80;32.20
81161;DHT22;70637;48.514;14.500;2024-01-10T13:47:32;27.80;32.40
81161;DHT22;70637;48.514;14.500;2024-01-10T13:50:01;27.70;32.10
81161;DHT22;70637;48.514;14.500;2024-01-10T13:52:28;27.70;32.00
81161;DHT22;70637;48.514;14.500;2024-01-10T13:54:54;27.80;32.10
81161;DHT22;70637;48.514;14.500;2024-01-10T13:57:21;27.70;32.10
81161;DHT22;70637;48.514;14.500;2024-01-10T13:59:47;27.70;32.10
81161;DHT22;70637;48.514;14.500;2024-01-10T14:02:13;27.70;32.10
81161;DHT22;70637;48.514;14.500;2024-01-10T14:04:39;27.70;32.10
81161;DHT22;70637;48.514;14.500;2024-01-10T14:07:05;27.70;32.10
81161;DHT22;70637;48.514;14.500;2024-01-10T14:09:31;27.70;32.20
81161;DHT22;70637;48.514;14.500;2024-01-10T14:11:57;27.70;32.10
81161;DHT22;70637;48.514;14.500;2024-01-10T14:14:22;27.70;32.10
81161;DHT22;70637;48.514;14.500;2024-01-10T14:16:49;27.70;32.20
81161;DHT22;70637;48.514;14.500;2024-01-10T14:19:15;27.60;32.10
81161;DHT22;70637;48.514;14.500;2024-01-10T14:21:43;27.60;32.10
81161;DHT22;70637;48.514;14.500;2024-01-10T14:24:08;27.60;32.10
81161;DHT22;70637;48.514;14.500;2024-01-10T14:26:34;27.60;32.20
81161;DHT22;70637;48.514;14.500;2024-01-10T14:29:01;27.60;32.20
81161;DHT22;70637;48.514;14.500;2024-01-10T14:31:26;27.60;32.20
81161;DHT22;70637;48.514;14.500;2024-01-10T14:33:53;27.60;32.20
81161;DHT22;70637;48.514;14.500;2024-01-10T14:36:19;27.60;32.30
81161;DHT22;70637;48.514;14.500;2024-01-10T14:38:44;27.60;32.40
81161;DHT22;70637;48.514;14.500;2024-01-10T14:41:10;27.60;32.40
81161;DHT22;70637;48.514;14.500;2024-01-10T14:43:36;27.50;32.30
81161;DHT22;70637;48.514;14.500;2024-01-10T14:46:03;27.50;32.30
81161;DHT22;70637;48.514;14.500;2024-01-10T14:48:29;27.60;32.30
81161;DHT22;70637;48.514;14.500;2024-01-10T14:50:55;27.60;32.40
81161;DHT22;70637;48.514;14.500;2024-01-10T14:53:20;27.50;32.40
81161;DHT22;70637;48.514;14.500;2024-01-10T14:55:46;27.50;32.30
81161;DHT22;70637;48.514;14.500;2024-01-10T14:58:12;27.50;32.40
81161;DHT22;70637;48.514;14.500;2024-01-10T15:00:38;27.50;32.40
81161;DHT22;70637;48.514;14.500;2024-01-10T15:03:06;27.50;32.40
81161;DHT22;70637;48.514;14.500;2024-01-10T15:05:34;27.50;32.40
81161;DHT22;70637;48.514;14.500;2024-01-10T15:08:00;27.50;32.40
81161;DHT22;70637;48.514;14.500;2024-01-10T15:10:27;27.50;32.40
81161;DHT22;70637;48.514;14.500;2024-01-10T15:12:53;27.50;32.40
81161;DHT22;70637;48.514;14.500;2024-01-10T15:15:18;27.50;32.40
81161;DHT22;70637;48.514;14.500;2024-01-10T15:17:44;27.50;32.40
81161;DHT22;70637;48.514;14.500;2024-01-10T15:20:10;27.40;32.40